sensor_id;sensor_type;location;lat;lon;timestamp;P1;durP1;ratioP1;P2;durP2;ratioP2
22697;SDS011;11516;51.612;7.510;2022-11-20T00:00:43;31.90;;;22.97;;
22697;SDS011;11516;51.612;7.510;2022-11-20T00:03:08;33.35;;;24.35;;
22697;SDS011;11516;51.612;7.510;2022-11-20T00:05:34;30.70;;;23.20;;
22697;SDS011;11516;51.612;7.510;2022-11-20T00:07:59;28.85;;;22.70;;
22697;SDS011;11516;51.612;7.510;2022-11-20T00:10:25;30.50;;;23.23;;
22697;SDS011;11516;51.612;7.510;2022-11-20T00:12:51;29.45;;;23.30;;
22697;SDS011;11516;51.612;7.510;2022-11-20T00:15:17;29.00;;;21.80;;
22697;SDS011;11516;51.612;7.510;2022-11-20T00:17:42;31.10;;;22.10;;
22697;SDS011;11516;51.612;7.510;2022-11-20T00:20:08;31.73;;;23.55;;
22697;SDS011;11516;51.612;7.510;2022-11-20T00:22:34;30.47;;;22.90;;
22697;SDS011;11516;51.612;7.510;2022-11-20T00:25:00;34.03;;;22.27;;
22697;SDS011;11516;51.612;7.510;2022-11-20T00:27:25;30.30;;;22.10;;
22697;SDS011;11516;51.612;7.510;2022-11-20T00:29:51;33.47;;;23.53;;
22697;SDS011;11516;51.612;7.510;2022-11-20T00:32:16;29.70;;;23.90;;
22697;SDS011;11516;51.612;7.510;2022-11-20T00:34:42;31.37;;;23.63;;
22697;SDS011;11516;51.612;7.510;2022-11-20T00:37:07;30.50;;;23.70;;
22697;SDS011;11516;51.612;7.510;2022-11-20T00:39:33;31.57;;;23.97;;
22697;SDS011;11516;51.612;7.510;2022-11-20T00:41:58;31.33;;;24.00;;
22697;SDS011;11516;51.612;7.510;2022-11-20T00:44:24;33.70;;;24.80;;
22697;SDS011;11516;51.612;7.510;2022-11-20T00:46:49;32.85;;;25.38;;
22697;SDS011;11516;51.612;7.510;2022-11-20T00:49:15;32.83;;;24.83;;
22697;SDS011;11516;51.612;7.510;2022-11-20T00:51:40;33.70;;;24.42;;
22697;SDS011;11516;51.612;7.510;2022-11-20T00:54:06;38.63;;;24.63;;
22697;SDS011;11516;51.612;7.510;2022-11-20T00:56:31;35.63;;;24.65;;
22697;SDS011;11516;51.612;7.510;2022-11-20T00:58:58;36.17;;;24.70;;
22697;SDS011;11516;51.612;7.510;2022-11-20T01:01:25;37.58;;;26.17;;
22697;SDS011;11516;51.612;7.510;2022-11-20T01:03:52;33.30;;;24.77;;
22697;SDS011;11516;51.612;7.510;2022-11-20T01:06:20;33.70;;;24.87;;
22697;SDS011;11516;51.612;7.510;2022-11-20T01:08:48;31.40;;;23.92;;
22697;SDS011;11516;51.612;7.510;2022-11-20T01:11:16;31.55;;;23.73;;
22697;SDS011;11516;51.612;7.510;2022-11-20T01:13:45;33.92;;;23.73;;
22697;SDS011;11516;51.612;7.510;2022-11-20T01:16:24;30.42;;;23.20;;
22697;SDS011;11516;51.612;7.510;2022-11-20T01:18:52;29.35;;;23.75;;
22697;SDS011;11516;51.612;7.510;2022-11-20T01:21:23;32.92;;;23.10;;
22697;SDS011;11516;51.612;7.510;2022-11-20T01:23:53;29.10;;;22.45;;
22697;SDS011;11516;51.612;7.510;2022-11-20T01:26:20;27.08;;;21.25;;
22697;SDS011;11516;51.612;7.510;2022-11-20T01:28:48;25.50;;;22.45;;
22697;SDS011;11516;51.612;7.510;2022-11-20T01:31:16;30.23;;;21.37;;
22697;SDS011;11516;51.612;7.510;2022-11-20T01:33:43;28.80;;;22.63;;
22697;SDS011;11516;51.612;7.510;2022-11-20T01:36:09;28.70;;;22.08;;
22697;SDS011;11516;51.612;7.510;2022-11-20T01:38:35;27.77;;;22.40;;
22697;SDS011;11516;51.612;7.510;2022-11-20T01:41:01;30.92;;;21.48;;
22697;SDS011;11516;51.612;7.510;2022-11-20T01:43:26;27.52;;;21.30;;
22697;SDS011;11516;51.612;7.510;2022-11-20T01:46:00;26.38;;;20.73;;
22697;SDS011;11516;51.612;7.510;2022-11-20T01:48:27;25.50;;;21.10;;
22697;SDS011;11516;51.612;7.510;2022-11-20T01:50:56;29.50;;;21.92;;
22697;SDS011;11516;51.612;7.510;2022-11-20T01:53:24;27.27;;;21.67;;
22697;SDS011;11516;51.612;7.510;2022-11-20T01:55:53;25.70;;;20.70;;
22697;SDS011;11516;51.612;7.510;2022-11-20T01:58:22;27.47;;;21.67;;
22697;SDS011;11516;51.612;7.510;2022-11-20T02:00:53;29.20;;;22.85;;
22697;SDS011;11516;51.612;7.510;2022-11-20T02:03:19;27.90;;;22.37;;
22697;SDS011;11516;51.612;7.510;2022-11-20T02:05:47;27.88;;;23.38;;
22697;SDS011;11516;51.612;7.510;2022-11-20T02:08:30;27.90;;;22.92;;
22697;SDS011;11516;51.612;7.510;2022-11-20T02:10:58;25.33;;;20.70;;
22697;SDS011;11516;51.612;7.510;2022-11-20T02:13:23;26.17;;;21.37;;
22697;SDS011;11516;51.612;7.510;2022-11-20T02:16:21;26.00;;;21.65;;
22697;SDS011;11516;51.612;7.510;2022-11-20T02:18:50;24.92;;;20.88;;
22697;SDS011;11516;51.612;7.510;2022-11-20T02:21:27;26.10;;;21.55;;
22697;SDS011;11516;51.612;7.510;2022-11-20T02:26:31;24.95;;;21.15;;
22697;SDS011;11516;51.612;7.510;2022-11-20T02:29:00;25.42;;;21.45;;
22697;SDS011;11516;51.612;7.510;2022-11-20T02:31:26;25.08;;;21.67;;
22697;SDS011;11516;51.612;7.510;2022-11-20T02:33:56;23.75;;;21.02;;
22697;SDS011;11516;51.612;7.510;2022-11-20T02:36:22;25.10;;;21.37;;
22697;SDS011;11516;51.612;7.510;2022-11-20T02:38:51;23.45;;;20.60;;
22697;SDS011;11516;51.612;7.510;2022-11-20T02:41:16;24.57;;;21.57;;
22697;SDS011;11516;51.612;7.510;2022-11-20T02:43:42;24.50;;;21.55;;
22697;SDS011;11516;51.612;7.510;2022-11-20T02:46:07;22.90;;;20.27;;
22697;SDS011;11516;51.612;7.510;2022-11-20T02:48:33;24.70;;;21.80;;
22697;SDS011;11516;51.612;7.510;2022-11-20T02:50:59;24.15;;;21.08;;
22697;SDS011;11516;51.612;7.510;2022-11-20T02:53:25;25.02;;;20.98;;
22697;SDS011;11516;51.612;7.510;2022-11-20T02:55:51;23.20;;;19.67;;
22697;SDS011;11516;51.612;7.510;2022-11-20T02:58:16;24.27;;;19.80;;
22697;SDS011;11516;51.612;7.510;2022-11-20T03:00:42;24.65;;;20.05;;
22697;SDS011;11516;51.612;7.510;2022-11-20T03:03:07;23.60;;;20.23;;
22697;SDS011;11516;51.612;7.510;2022-11-20T03:05:34;23.15;;;20.25;;
22697;SDS011;11516;51.612;7.510;2022-11-20T03:08:00;23.30;;;20.80;;
22697;SDS011;11516;51.612;7.510;2022-11-20T03:10:26;22.07;;;19.13;;
22697;SDS011;11516;51.612;7.510;2022-11-20T03:12:54;24.05;;;20.45;;
22697;SDS011;11516;51.612;7.510;2022-11-20T03:15:21;23.60;;;19.80;;
22697;SDS011;11516;51.612;7.510;2022-11-20T03:17:47;23.77;;;20.77;;
22697;SDS011;11516;51.612;7.510;2022-11-20T03:20:13;23.98;;;20.90;;
22697;SDS011;11516;51.612;7.510;2022-11-20T03:22:38;22.73;;;20.30;;
22697;SDS011;11516;51.612;7.510;2022-11-20T03:25:04;23.33;;;20.42;;
22697;SDS011;11516;51.612;7.510;2022-11-20T03:27:34;24.60;;;20.38;;
22697;SDS011;11516;51.612;7.510;2022-11-20T03:30:00;23.48;;;20.65;;
22697;SDS011;11516;51.612;7.510;2022-11-20T03:32:26;23.08;;;20.40;;
22697;SDS011;11516;51.612;7.510;2022-11-20T03:34:51;23.75;;;20.77;;
22697;SDS011;11516;51.612;7.510;2022-11-20T03:37:17;23.37;;;19.63;;
22697;SDS011;11516;51.612;7.510;2022-11-20T03:39:42;23.05;;;20.38;;
22697;SDS011;11516;51.612;7.510;2022-11-20T03:42:08;25.53;;;20.97;;
22697;SDS011;11516;51.612;7.510;2022-11-20T03:44:54;25.52;;;21.00;;
22697;SDS011;11516;51.612;7.510;2022-11-20T03:47:19;24.75;;;21.58;;
22697;SDS011;11516;51.612;7.510;2022-11-20T03:49:45;22.88;;;19.83;;
22697;SDS011;11516;51.612;7.510;2022-11-20T03:52:11;24.40;;;21.30;;
22697;SDS011;11516;51.612;7.510;2022-11-20T03:54:36;24.52;;;20.77;;
22697;SDS011;11516;51.612;7.510;2022-11-20T03:57:02;24.50;;;21.83;;
22697;SDS011;11516;51.612;7.510;2022-11-20T03:59:27;24.07;;;21.47;;
22697;SDS011;11516;51.612;7.510;2022-11-20T04:01:53;23.00;;;20.57;;
22697;SDS011;11516;51.612;7.510;2022-11-20T04:04:18;22.43;;;19.90;;
22697;SDS011;11516;51.612;7.510;2022-11-20T04:06:44;24.17;;;20.57;;
22697;SDS011;11516;51.612;7.510;2022-11-20T04:09:09;24.50;;;20.67;;
22697;SDS011;11516;51.612;7.510;2022-11-20T04:11:36;22.87;;;20.17;;
22697;SDS011;11516;51.612;7.510;2022-11-20T04:14:03;24.45;;;20.02;;
22697;SDS011;11516;51.612;7.510;2022-11-20T04:16:32;24.55;;;21.95;;
22697;SDS011;11516;51.612;7.510;2022-11-20T04:19:00;23.98;;;21.00;;
22697;SDS011;11516;51.612;7.510;2022-11-20T04:21:27;24.50;;;21.48;;
22697;SDS011;11516;51.612;7.510;2022-11-20T04:23:54;23.63;;;21.10;;
22697;SDS011;11516;51.612;7.510;2022-11-20T04:26:21;23.20;;;20.70;;
22697;SDS011;11516;51.612;7.510;2022-11-20T04:28:47;23.40;;;20.67;;
22697;SDS011;11516;51.612;7.510;2022-11-20T04:31:14;24.15;;;21.15;;
22697;SDS011;11516;51.612;7.510;2022-11-20T04:33:41;24.55;;;21.88;;
22697;SDS011;11516;51.612;7.510;2022-11-20T04:36:10;24.98;;;21.00;;
22697;SDS011;11516;51.612;7.510;2022-11-20T04:38:37;25.55;;;21.48;;
22697;SDS011;11516;51.612;7.510;2022-11-20T04:41:04;24.48;;;21.75;;
22697;SDS011;11516;51.612;7.510;2022-11-20T04:43:31;24.27;;;21.27;;
22697;SDS011;11516;51.612;7.510;2022-11-20T04:45:58;25.65;;;22.02;;
22697;SDS011;11516;51.612;7.510;2022-11-20T04:48:25;25.52;;;22.50;;
22697;SDS011;11516;51.612;7.510;2022-11-20T04:50:52;27.10;;;21.38;;
22697;SDS011;11516;51.612;7.510;2022-11-20T04:53:18;25.63;;;22.35;;
22697;SDS011;11516;51.612;7.510;2022-11-20T04:55:45;25.90;;;22.10;;
22697;SDS011;11516;51.612;7.510;2022-11-20T04:58:11;27.13;;;23.60;;
22697;SDS011;11516;51.612;7.510;2022-11-20T05:00:37;28.45;;;22.77;;
22697;SDS011;11516;51.612;7.510;2022-11-20T05:03:02;28.33;;;23.92;;
22697;SDS011;11516;51.612;7.510;2022-11-20T05:05:28;27.67;;;23.35;;
22697;SDS011;11516;51.612;7.510;2022-11-20T05:07:57;31.05;;;21.70;;
22697;SDS011;11516;51.612;7.510;2022-11-20T05:10:23;27.63;;;23.27;;
22697;SDS011;11516;51.612;7.510;2022-11-20T05:12:49;28.23;;;22.55;;
22697;SDS011;11516;51.612;7.510;2022-11-20T05:15:15;30.92;;;23.95;;
22697;SDS011;11516;51.612;7.510;2022-11-20T05:17:40;26.40;;;22.60;;
22697;SDS011;11516;51.612;7.510;2022-11-20T05:20:06;28.55;;;22.98;;
22697;SDS011;11516;51.612;7.510;2022-11-20T05:22:32;28.35;;;21.58;;
22697;SDS011;11516;51.612;7.510;2022-11-20T05:24:58;35.03;;;24.50;;
22697;SDS011;11516;51.612;7.510;2022-11-20T05:27:23;29.70;;;23.53;;
22697;SDS011;11516;51.612;7.510;2022-11-20T05:29:49;29.77;;;22.33;;
22697;SDS011;11516;51.612;7.510;2022-11-20T05:32:14;27.67;;;22.70;;
22697;SDS011;11516;51.612;7.510;2022-11-20T05:34:40;29.67;;;22.13;;
22697;SDS011;11516;51.612;7.510;2022-11-20T05:37:05;26.40;;;22.80;;
22697;SDS011;11516;51.612;7.510;2022-11-20T05:39:31;26.23;;;23.27;;
22697;SDS011;11516;51.612;7.510;2022-11-20T05:41:56;26.63;;;22.50;;
22697;SDS011;11516;51.612;7.510;2022-11-20T05:44:41;27.65;;;23.10;;
22697;SDS011;11516;51.612;7.510;2022-11-20T05:47:06;29.87;;;23.73;;
22697;SDS011;11516;51.612;7.510;2022-11-20T05:49:32;30.15;;;23.25;;
22697;SDS011;11516;51.612;7.510;2022-11-20T05:51:58;29.93;;;23.70;;
22697;SDS011;11516;51.612;7.510;2022-11-20T05:54:23;29.00;;;22.85;;
22697;SDS011;11516;51.612;7.510;2022-11-20T05:56:48;29.60;;;23.20;;
22697;SDS011;11516;51.612;7.510;2022-11-20T05:59:14;30.83;;;23.20;;
22697;SDS011;11516;51.612;7.510;2022-11-20T06:01:40;26.53;;;22.27;;
22697;SDS011;11516;51.612;7.510;2022-11-20T06:04:05;27.40;;;23.35;;
22697;SDS011;11516;51.612;7.510;2022-11-20T06:06:30;26.87;;;22.07;;
22697;SDS011;11516;51.612;7.510;2022-11-20T06:08:56;26.38;;;22.30;;
22697;SDS011;11516;51.612;7.510;2022-11-20T06:11:23;26.23;;;23.30;;
22697;SDS011;11516;51.612;7.510;2022-11-20T06:13:49;28.08;;;23.13;;
22697;SDS011;11516;51.612;7.510;2022-11-20T06:16:15;27.60;;;22.07;;
22697;SDS011;11516;51.612;7.510;2022-11-20T06:18:43;26.70;;;23.38;;
22697;SDS011;11516;51.612;7.510;2022-11-20T06:21:10;27.80;;;23.60;;
22697;SDS011;11516;51.612;7.510;2022-11-20T06:23:37;26.80;;;23.60;;
22697;SDS011;11516;51.612;7.510;2022-11-20T06:26:06;26.70;;;23.25;;
22697;SDS011;11516;51.612;7.510;2022-11-20T06:28:36;28.45;;;24.38;;
22697;SDS011;11516;51.612;7.510;2022-11-20T06:31:02;27.38;;;22.33;;
22697;SDS011;11516;51.612;7.510;2022-11-20T06:33:28;26.13;;;21.85;;
22697;SDS011;11516;51.612;7.510;2022-11-20T06:35:58;30.58;;;22.00;;
22697;SDS011;11516;51.612;7.510;2022-11-20T06:38:25;25.83;;;22.40;;
22697;SDS011;11516;51.612;7.510;2022-11-20T06:40:51;26.98;;;22.65;;
22697;SDS011;11516;51.612;7.510;2022-11-20T06:43:17;26.35;;;21.67;;
22697;SDS011;11516;51.612;7.510;2022-11-20T06:45:42;28.97;;;22.87;;
22697;SDS011;11516;51.612;7.510;2022-11-20T06:48:08;33.67;;;22.80;;
22697;SDS011;11516;51.612;7.510;2022-11-20T06:50:35;25.02;;;21.77;;
22697;SDS011;11516;51.612;7.510;2022-11-20T06:53:02;24.83;;;22.08;;
22697;SDS011;11516;51.612;7.510;2022-11-20T06:55:28;27.02;;;22.75;;
22697;SDS011;11516;51.612;7.510;2022-11-20T06:57:54;26.50;;;21.80;;
22697;SDS011;11516;51.612;7.510;2022-11-20T07:00:20;25.48;;;21.92;;
22697;SDS011;11516;51.612;7.510;2022-11-20T07:02:45;27.10;;;22.03;;
22697;SDS011;11516;51.612;7.510;2022-11-20T07:05:11;28.48;;;21.48;;
22697;SDS011;11516;51.612;7.510;2022-11-20T07:07:36;26.63;;;22.13;;
22697;SDS011;11516;51.612;7.510;2022-11-20T07:10:02;26.77;;;22.10;;
22697;SDS011;11516;51.612;7.510;2022-11-20T07:12:27;28.27;;;21.83;;
22697;SDS011;11516;51.612;7.510;2022-11-20T07:14:53;25.50;;;21.42;;
22697;SDS011;11516;51.612;7.510;2022-11-20T07:17:18;27.00;;;22.73;;
22697;SDS011;11516;51.612;7.510;2022-11-20T07:19:44;27.08;;;21.90;;
22697;SDS011;11516;51.612;7.510;2022-11-20T07:22:09;26.47;;;20.83;;
22697;SDS011;11516;51.612;7.510;2022-11-20T07:24:35;27.50;;;22.48;;
22697;SDS011;11516;51.612;7.510;2022-11-20T07:27:00;31.77;;;24.03;;
22697;SDS011;11516;51.612;7.510;2022-11-20T07:29:26;28.52;;;23.58;;
22697;SDS011;11516;51.612;7.510;2022-11-20T07:31:51;36.57;;;26.03;;
22697;SDS011;11516;51.612;7.510;2022-11-20T07:34:17;31.88;;;25.83;;
22697;SDS011;11516;51.612;7.510;2022-11-20T07:36:42;30.10;;;23.50;;
22697;SDS011;11516;51.612;7.510;2022-11-20T07:39:08;29.27;;;23.05;;
22697;SDS011;11516;51.612;7.510;2022-11-20T07:41:33;29.63;;;23.87;;
22697;SDS011;11516;51.612;7.510;2022-11-20T07:43:59;31.00;;;22.75;;
22697;SDS011;11516;51.612;7.510;2022-11-20T07:46:24;30.20;;;22.63;;
22697;SDS011;11516;51.612;7.510;2022-11-20T07:48:50;31.77;;;23.23;;
22697;SDS011;11516;51.612;7.510;2022-11-20T07:51:15;33.90;;;26.08;;
22697;SDS011;11516;51.612;7.510;2022-11-20T07:53:41;47.83;;;33.93;;
22697;SDS011;11516;51.612;7.510;2022-11-20T07:56:06;34.08;;;28.40;;
22697;SDS011;11516;51.612;7.510;2022-11-20T07:58:32;32.40;;;25.13;;
22697;SDS011;11516;51.612;7.510;2022-11-20T08:01:06;30.27;;;26.17;;
22697;SDS011;11516;51.612;7.510;2022-11-20T08:03:32;34.47;;;26.75;;
22697;SDS011;11516;51.612;7.510;2022-11-20T08:05:58;31.52;;;26.25;;
22697;SDS011;11516;51.612;7.510;2022-11-20T08:08:25;32.10;;;26.33;;
22697;SDS011;11516;51.612;7.510;2022-11-20T08:10:51;32.03;;;26.13;;
22697;SDS011;11516;51.612;7.510;2022-11-20T08:13:17;28.67;;;25.60;;
22697;SDS011;11516;51.612;7.510;2022-11-20T08:16:01;28.63;;;25.45;;
22697;SDS011;11516;51.612;7.510;2022-11-20T08:18:26;29.98;;;25.40;;
22697;SDS011;11516;51.612;7.510;2022-11-20T08:20:52;32.73;;;25.87;;
22697;SDS011;11516;51.612;7.510;2022-11-20T08:23:17;33.83;;;26.02;;
22697;SDS011;11516;51.612;7.510;2022-11-20T08:25:43;33.67;;;27.13;;
22697;SDS011;11516;51.612;7.510;2022-11-20T08:28:13;33.77;;;24.87;;
22697;SDS011;11516;51.612;7.510;2022-11-20T08:30:39;30.80;;;26.23;;
22697;SDS011;11516;51.612;7.510;2022-11-20T08:33:05;33.40;;;26.50;;
22697;SDS011;11516;51.612;7.510;2022-11-20T08:35:34;31.58;;;26.63;;
22697;SDS011;11516;51.612;7.510;2022-11-20T08:38:01;32.43;;;27.20;;
22697;SDS011;11516;51.612;7.510;2022-11-20T08:40:30;33.95;;;26.75;;
22697;SDS011;11516;51.612;7.510;2022-11-20T08:42:56;35.10;;;28.67;;
22697;SDS011;11516;51.612;7.510;2022-11-20T08:45:22;32.20;;;27.93;;
22697;SDS011;11516;51.612;7.510;2022-11-20T08:47:47;35.00;;;28.70;;
22697;SDS011;11516;51.612;7.510;2022-11-20T08:50:14;35.60;;;29.50;;
22697;SDS011;11516;51.612;7.510;2022-11-20T08:52:40;34.72;;;29.90;;
22697;SDS011;11516;51.612;7.510;2022-11-20T08:55:06;34.57;;;29.07;;
22697;SDS011;11516;51.612;7.510;2022-11-20T08:57:36;31.83;;;27.98;;
22697;SDS011;11516;51.612;7.510;2022-11-20T09:00:03;33.72;;;28.73;;
22697;SDS011;11516;51.612;7.510;2022-11-20T09:02:30;37.03;;;29.50;;
22697;SDS011;11516;51.612;7.510;2022-11-20T09:04:57;34.75;;;28.83;;
22697;SDS011;11516;51.612;7.510;2022-11-20T09:07:23;33.88;;;29.17;;
22697;SDS011;11516;51.612;7.510;2022-11-20T09:09:48;33.73;;;29.27;;
22697;SDS011;11516;51.612;7.510;2022-11-20T09:12:14;34.33;;;28.58;;
22697;SDS011;11516;51.612;7.510;2022-11-20T09:14:39;33.07;;;29.33;;
22697;SDS011;11516;51.612;7.510;2022-11-20T09:17:05;32.90;;;28.45;;
22697;SDS011;11516;51.612;7.510;2022-11-20T09:19:32;33.83;;;29.08;;
22697;SDS011;11516;51.612;7.510;2022-11-20T09:21:58;31.35;;;27.95;;
22697;SDS011;11516;51.612;7.510;2022-11-20T09:24:24;33.50;;;28.55;;
22697;SDS011;11516;51.612;7.510;2022-11-20T09:26:53;31.65;;;28.23;;
22697;SDS011;11516;51.612;7.510;2022-11-20T09:29:18;34.53;;;28.77;;
22697;SDS011;11516;51.612;7.510;2022-11-20T09:31:44;32.50;;;29.00;;
22697;SDS011;11516;51.612;7.510;2022-11-20T09:34:09;32.30;;;27.73;;
22697;SDS011;11516;51.612;7.510;2022-11-20T09:36:35;32.80;;;29.27;;
22697;SDS011;11516;51.612;7.510;2022-11-20T09:39:00;30.63;;;27.37;;
22697;SDS011;11516;51.612;7.510;2022-11-20T09:55:46;29.58;;;25.85;;
22697;SDS011;11516;51.612;7.510;2022-11-20T09:58:25;32.33;;;26.75;;
22697;SDS011;11516;51.612;7.510;2022-11-20T10:01:07;27.27;;;23.90;;
22697;SDS011;11516;51.612;7.510;2022-11-20T10:19:55;31.40;;;24.65;;
22697;SDS011;11516;51.612;7.510;2022-11-20T10:25:13;29.40;;;22.23;;
22697;SDS011;11516;51.612;7.510;2022-11-20T10:30:40;26.45;;;20.60;;
22697;SDS011;11516;51.612;7.510;2022-11-20T10:33:19;28.63;;;21.50;;
22697;SDS011;11516;51.612;7.510;2022-11-20T10:35:52;25.35;;;21.42;;
22697;SDS011;11516;51.612;7.510;2022-11-20T10:38:37;32.97;;;25.48;;
22697;SDS011;11516;51.612;7.510;2022-11-20T10:41:07;41.25;;;33.05;;
22697;SDS011;11516;51.612;7.510;2022-11-20T10:43:58;28.58;;;21.55;;
22697;SDS011;11516;51.612;7.510;2022-11-20T10:46:32;27.58;;;20.90;;
22697;SDS011;11516;51.612;7.510;2022-11-20T10:49:05;27.97;;;19.47;;
22697;SDS011;11516;51.612;7.510;2022-11-20T10:51:40;26.23;;;19.55;;
22697;SDS011;11516;51.612;7.510;2022-11-20T10:54:22;25.80;;;19.10;;
22697;SDS011;11516;51.612;7.510;2022-11-20T11:02:39;26.25;;;18.88;;
22697;SDS011;11516;51.612;7.510;2022-11-20T11:05:31;27.02;;;20.40;;
22697;SDS011;11516;51.612;7.510;2022-11-20T11:07:58;28.40;;;20.63;;
22697;SDS011;11516;51.612;7.510;2022-11-20T11:10:26;26.43;;;19.27;;
22697;SDS011;11516;51.612;7.510;2022-11-20T11:12:56;28.00;;;19.95;;
22697;SDS011;11516;51.612;7.510;2022-11-20T11:15:40;24.58;;;18.50;;
22697;SDS011;11516;51.612;7.510;2022-11-20T11:18:09;25.60;;;18.65;;
22697;SDS011;11516;51.612;7.510;2022-11-20T11:20:36;24.27;;;18.33;;
22697;SDS011;11516;51.612;7.510;2022-11-20T11:23:03;25.92;;;18.63;;
22697;SDS011;11516;51.612;7.510;2022-11-20T11:25:35;25.45;;;19.10;;
22697;SDS011;11516;51.612;7.510;2022-11-20T11:28:03;25.37;;;19.37;;
22697;SDS011;11516;51.612;7.510;2022-11-20T11:30:44;25.92;;;19.90;;
22697;SDS011;11516;51.612;7.510;2022-11-20T11:33:19;27.45;;;21.52;;
22697;SDS011;11516;51.612;7.510;2022-11-20T11:35:49;27.37;;;21.07;;
22697;SDS011;11516;51.612;7.510;2022-11-20T11:38:43;26.00;;;20.10;;
22697;SDS011;11516;51.612;7.510;2022-11-20T11:41:13;24.23;;;18.85;;
22697;SDS011;11516;51.612;7.510;2022-11-20T11:43:50;26.53;;;19.47;;
22697;SDS011;11516;51.612;7.510;2022-11-20T11:46:37;24.63;;;19.15;;
22697;SDS011;11516;51.612;7.510;2022-11-20T11:51:41;19.20;;;14.13;;
22697;SDS011;11516;51.612;7.510;2022-11-20T11:54:50;23.97;;;16.03;;
22697;SDS011;11516;51.612;7.510;2022-11-20T12:05:24;14.90;;;11.50;;
22697;SDS011;11516;51.612;7.510;2022-11-20T12:11:04;17.92;;;14.38;;
22697;SDS011;11516;51.612;7.510;2022-11-20T12:16:19;15.02;;;12.40;;
22697;SDS011;11516;51.612;7.510;2022-11-20T12:18:46;15.43;;;12.33;;
22697;SDS011;11516;51.612;7.510;2022-11-20T12:26:37;14.65;;;12.68;;
22697;SDS011;11516;51.612;7.510;2022-11-20T12:32:25;14.50;;;11.93;;
22697;SDS011;11516;51.612;7.510;2022-11-20T12:38:12;14.02;;;11.48;;
22697;SDS011;11516;51.612;7.510;2022-11-20T12:44:05;15.02;;;11.90;;
22697;SDS011;11516;51.612;7.510;2022-11-20T12:58:13;16.30;;;13.70;;
22697;SDS011;11516;51.612;7.510;2022-11-20T13:00:46;16.38;;;13.85;;
22697;SDS011;11516;51.612;7.510;2022-11-20T13:08:53;14.43;;;11.65;;
22697;SDS011;11516;51.612;7.510;2022-11-20T13:16:53;16.52;;;13.07;;
22697;SDS011;11516;51.612;7.510;2022-11-20T13:19:25;16.60;;;14.07;;
22697;SDS011;11516;51.612;7.510;2022-11-20T13:21:52;17.17;;;13.85;;
22697;SDS011;11516;51.612;7.510;2022-11-20T13:29:28;14.90;;;11.90;;
22697;SDS011;11516;51.612;7.510;2022-11-20T13:32:13;15.52;;;12.70;;
22697;SDS011;11516;51.612;7.510;2022-11-20T13:34:56;15.90;;;12.45;;
22697;SDS011;11516;51.612;7.510;2022-11-20T13:37:37;17.60;;;13.10;;
22697;SDS011;11516;51.612;7.510;2022-11-20T13:42:38;15.20;;;13.50;;
22697;SDS011;11516;51.612;7.510;2022-11-20T13:45:10;17.55;;;15.23;;
22697;SDS011;11516;51.612;7.510;2022-11-20T13:47:50;18.70;;;14.57;;
22697;SDS011;11516;51.612;7.510;2022-11-20T13:50:16;17.17;;;14.30;;
22697;SDS011;11516;51.612;7.510;2022-11-20T14:00:29;18.92;;;16.00;;
22697;SDS011;11516;51.612;7.510;2022-11-20T14:02:59;19.63;;;16.20;;
22697;SDS011;11516;51.612;7.510;2022-11-20T14:05:35;19.67;;;16.02;;
22697;SDS011;11516;51.612;7.510;2022-11-20T14:08:04;20.25;;;16.77;;
22697;SDS011;11516;51.612;7.510;2022-11-20T14:10:31;20.63;;;16.45;;
22697;SDS011;11516;51.612;7.510;2022-11-20T14:12:57;21.13;;;17.38;;
22697;SDS011;11516;51.612;7.510;2022-11-20T14:15:30;20.50;;;17.42;;
22697;SDS011;11516;51.612;7.510;2022-11-20T14:17:57;21.17;;;17.70;;
22697;SDS011;11516;51.612;7.510;2022-11-20T14:20:25;23.17;;;18.50;;
22697;SDS011;11516;51.612;7.510;2022-11-20T14:22:54;22.75;;;17.38;;
22697;SDS011;11516;51.612;7.510;2022-11-20T14:25:20;24.15;;;17.50;;
22697;SDS011;11516;51.612;7.510;2022-11-20T14:27:50;23.10;;;18.42;;
22697;SDS011;11516;51.612;7.510;2022-11-20T14:30:23;24.40;;;18.38;;
22697;SDS011;11516;51.612;7.510;2022-11-20T14:32:51;24.17;;;17.73;;
22697;SDS011;11516;51.612;7.510;2022-11-20T14:35:26;21.08;;;16.85;;
22697;SDS011;11516;51.612;7.510;2022-11-20T14:37:54;22.60;;;17.00;;
22697;SDS011;11516;51.612;7.510;2022-11-20T14:42:49;22.52;;;17.40;;
22697;SDS011;11516;51.612;7.510;2022-11-20T14:45:15;23.63;;;17.70;;
22697;SDS011;11516;51.612;7.510;2022-11-20T14:47:41;25.17;;;19.15;;
22697;SDS011;11516;51.612;7.510;2022-11-20T14:50:18;23.75;;;18.17;;
22697;SDS011;11516;51.612;7.510;2022-11-20T14:52:50;21.53;;;16.80;;
22697;SDS011;11516;51.612;7.510;2022-11-20T14:55:26;21.60;;;17.48;;
22697;SDS011;11516;51.612;7.510;2022-11-20T14:58:03;23.33;;;18.25;;
22697;SDS011;11516;51.612;7.510;2022-11-20T15:00:31;24.02;;;17.70;;
22697;SDS011;11516;51.612;7.510;2022-11-20T15:02:58;23.75;;;17.98;;
22697;SDS011;11516;51.612;7.510;2022-11-20T15:05:46;24.40;;;17.92;;
22697;SDS011;11516;51.612;7.510;2022-11-20T15:08:12;23.88;;;18.25;;
22697;SDS011;11516;51.612;7.510;2022-11-20T15:10:38;21.42;;;16.63;;
22697;SDS011;11516;51.612;7.510;2022-11-20T15:16:13;21.83;;;17.20;;
22697;SDS011;11516;51.612;7.510;2022-11-20T15:18:43;23.70;;;17.40;;
22697;SDS011;11516;51.612;7.510;2022-11-20T15:21:19;22.55;;;17.38;;
22697;SDS011;11516;51.612;7.510;2022-11-20T15:23:48;22.10;;;17.48;;
22697;SDS011;11516;51.612;7.510;2022-11-20T15:26:15;23.43;;;17.73;;
22697;SDS011;11516;51.612;7.510;2022-11-20T15:28:47;23.60;;;18.02;;
22697;SDS011;11516;51.612;7.510;2022-11-20T15:31:15;25.58;;;18.30;;
22697;SDS011;11516;51.612;7.510;2022-11-20T15:33:42;25.60;;;19.63;;
22697;SDS011;11516;51.612;7.510;2022-11-20T15:36:09;24.10;;;18.27;;
22697;SDS011;11516;51.612;7.510;2022-11-20T15:38:34;23.58;;;17.73;;
22697;SDS011;11516;51.612;7.510;2022-11-20T15:41:00;26.52;;;19.25;;
22697;SDS011;11516;51.612;7.510;2022-11-20T15:43:26;24.58;;;19.00;;
22697;SDS011;11516;51.612;7.510;2022-11-20T15:45:56;25.87;;;18.53;;
22697;SDS011;11516;51.612;7.510;2022-11-20T15:48:26;24.00;;;17.52;;
22697;SDS011;11516;51.612;7.510;2022-11-20T15:50:55;21.88;;;17.17;;
22697;SDS011;11516;51.612;7.510;2022-11-20T15:53:24;23.50;;;17.98;;
22697;SDS011;11516;51.612;7.510;2022-11-20T15:55:50;27.27;;;19.83;;
22697;SDS011;11516;51.612;7.510;2022-11-20T15:58:15;28.50;;;20.47;;
22697;SDS011;11516;51.612;7.510;2022-11-20T16:00:42;22.50;;;18.15;;
22697;SDS011;11516;51.612;7.510;2022-11-20T16:03:11;26.10;;;18.42;;
22697;SDS011;11516;51.612;7.510;2022-11-20T16:05:37;23.30;;;17.73;;
22697;SDS011;11516;51.612;7.510;2022-11-20T16:08:03;22.93;;;17.33;;
22697;SDS011;11516;51.612;7.510;2022-11-20T16:10:29;23.92;;;17.67;;
22697;SDS011;11516;51.612;7.510;2022-11-20T16:12:54;23.57;;;17.60;;
22697;SDS011;11516;51.612;7.510;2022-11-20T16:15:39;24.75;;;18.92;;
22697;SDS011;11516;51.612;7.510;2022-11-20T16:18:11;24.85;;;18.42;;
22697;SDS011;11516;51.612;7.510;2022-11-20T16:20:39;25.23;;;19.47;;
22697;SDS011;11516;51.612;7.510;2022-11-20T16:23:05;24.52;;;19.08;;
22697;SDS011;11516;51.612;7.510;2022-11-20T16:25:31;27.33;;;20.55;;
22697;SDS011;11516;51.612;7.510;2022-11-20T16:27:56;28.48;;;20.95;;